Time;durP1;ratioP1;P1;durP2;ratioP2;P2;SDS_P1;SDS_P2;PMS_P1;PMS_P2;Temp;Humidity;BMP_temperature;BMP_pressure;BME280_temperature;BME280_humidity;BME280_pressure;Samples;Min_cycle;Max_cycle;Signal;HPM_P1;HPM_P2
2022/09/13 00:02:10;;;;;;;6.00;3.80;;;19.50;99.90;;;-147.18;100.00;67318.16;5004869;28;20046;-76
2022/09/13 00:05:37;;;;;;;10.60;4.00;;;19.50;99.90;;;-147.18;100.00;67318.16;5001817;28;20053;-76
2022/09/13 00:09:03;;;;;;;8.75;3.80;;;19.50;99.90;;;-147.18;100.00;67318.16;5009168;28;20401;-76
2022/09/13 00:12:29;;;;;;;6.70;3.75;;;19.50;99.90;;;-147.18;100.00;67318.16;5053466;23;20052;-85
2022/09/13 00:15:55;;;;;;;7.88;3.53;;;19.50;99.90;;;-147.18;100.00;67318.16;5058513;28;20049;-85
2022/09/13 00:19:22;;;;;;;7.78;3.70;;;19.50;99.90;;;-147.18;100.00;67318.16;5072421;28;20492;-85
2022/09/13 00:22:47;;;;;;;6.60;3.92;;;19.50;99.90;;;-147.18;100.00;67318.16;5068275;28;20047;-85
2022/09/13 00:26:15;;;;;;;5.93;3.63;;;19.50;99.90;;;-147.18;100.00;67318.16;5049751;28;20654;-85
2022/09/13 00:29:41;;;;;;;6.40;3.60;;;19.60;99.90;;;-147.18;100.00;67318.16;5051083;28;20049;-85
2022/09/13 00:33:06;;;;;;;5.40;3.55;;;19.60;99.90;;;-147.18;100.00;67318.16;5051723;28;20047;-85
2022/09/13 00:36:33;;;;;;;6.47;3.95;;;19.50;99.90;;;-147.18;100.00;67318.16;5031702;28;20045;-85
2022/09/13 00:39:59;;;;;;;6.30;3.80;;;19.50;99.90;;;-147.18;100.00;67318.16;5049405;28;20048;-85
2022/09/13 00:43:40;;;;;;;5.80;3.85;;;19.50;99.90;;;-147.18;100.00;67318.16;5051474;28;20051;-85
2022/09/13 00:47:06;;;;;;;6.45;3.67;;;19.50;99.90;;;-147.18;100.00;67318.16;5043119;28;20112;-85
2022/09/13 00:50:39;;;;;;;8.15;3.55;;;19.50;99.90;;;-147.18;100.00;67318.16;5045177;28;20059;-85
2022/09/13 00:54:08;;;;;;;5.95;3.55;;;19.50;99.90;;;-147.18;100.00;67318.16;5050323;28;20045;-85
2022/09/13 00:57:38;;;;;;;6.40;3.78;;;19.40;99.90;;;-147.18;100.00;67318.16;5043074;28;20040;-85
2022/09/13 01:01:08;;;;;;;5.75;3.58;;;19.50;99.90;;;-147.18;100.00;67318.16;5049283;28;20044;-85
2022/09/13 01:04:35;;;;;;;7.28;3.53;;;19.50;99.90;;;-147.18;100.00;67318.16;5047214;28;20045;-85
2022/09/13 01:08:11;;;;;;;5.50;3.47;;;19.60;99.90;;;-147.18;100.00;67318.16;5050730;28;20036;-85
2022/09/13 01:11:40;;;;;;;4.90;3.10;;;19.50;99.90;;;-147.18;100.00;67318.16;5050094;28;20124;-85
2022/09/13 01:15:07;;;;;;;7.55;3.80;;;19.50;99.90;;;-147.18;100.00;67318.16;5050973;28;20048;-86
2022/09/13 01:18:33;;;;;;;7.90;3.42;;;19.60;99.90;;;-147.18;100.00;67318.16;5045605;28;20580;-85
2022/09/13 01:22:59;;;;;;;7.40;3.28;;;19.50;99.90;;;-147.18;100.00;67318.16;5044371;28;20038;-85
2022/09/13 01:27:08;;;;;;;7.07;3.70;;;19.40;99.90;;;-147.18;100.00;67318.16;5053652;28;20049;-85
2022/09/13 01:31:16;;;;;;;7.88;3.33;;;19.50;99.90;;;-147.18;100.00;67318.16;5050539;28;20048;-85
2022/09/13 01:35:00;;;;;;;7.85;3.90;;;19.50;99.90;;;-147.18;100.00;67318.16;5041565;28;20053;-85
2022/09/13 01:38:45;;;;;;;8.20;3.65;;;19.50;99.90;;;-147.18;100.00;67318.16;5048397;28;20048;-86
2022/09/13 01:42:26;;;;;;;9.93;3.50;;;19.50;99.90;;;-147.18;100.00;67318.16;5060757;28;20045;-85
2022/09/13 01:46:05;;;;;;;45.38;6.82;;;19.50;99.90;;;-147.18;100.00;67318.16;5050105;28;20048;-85
2022/09/13 01:49:48;;;;;;;6.95;3.28;;;19.50;99.90;;;-147.18;100.00;67318.16;5048824;28;20049;-85
2022/09/13 01:53:25;;;;;;;5.95;3.30;;;19.60;99.90;;;-147.18;100.00;67318.16;5031287;28;20052;-85
2022/09/13 01:57:00;;;;;;;6.55;2.85;;;19.40;99.90;;;-147.18;100.00;67318.16;5034666;28;20045;-85
2022/09/13 02:00:37;;;;;;;7.03;3.20;;;19.40;99.90;;;-147.18;100.00;67318.16;5048609;28;20493;-86
2022/09/13 02:04:07;;;;;;;9.90;3.35;;;19.40;99.90;;;-147.18;100.00;67318.16;5048963;28;20048;-85
2022/09/13 02:07:39;;;;;;;7.22;3.50;;;19.40;99.90;;;-147.18;100.00;67318.16;5042733;28;20037;-85
2022/09/13 02:11:10;;;;;;;6.57;3.60;;;19.50;99.90;;;-147.18;100.00;67318.16;5048751;28;20043;-85
2022/09/13 02:14:39;;;;;;;11.35;3.58;;;19.50;99.90;;;-147.18;100.00;67318.16;5047380;28;20071;-85
2022/09/13 02:18:09;;;;;;;8.50;3.30;;;19.50;99.90;;;-147.18;100.00;67318.16;5047554;28;20060;-86
2022/09/13 02:21:42;;;;;;;7.13;3.35;;;19.50;99.90;;;-147.18;100.00;67318.16;5030504;28;20136;-82
2022/09/13 02:25:13;;;;;;;10.80;3.60;;;19.50;99.90;;;-147.18;100.00;67318.16;5038505;28;20040;-85
2022/09/13 02:28:43;;;;;;;6.27;3.60;;;19.50;99.90;;;-147.18;100.00;67318.16;5047860;28;20037;-85
2022/09/13 02:32:12;;;;;;;5.95;3.40;;;19.50;99.90;;;-147.18;100.00;67318.16;5047840;28;20051;-85
2022/09/13 02:35:45;;;;;;;7.28;3.38;;;19.50;99.90;;;-147.18;100.00;67318.16;5060261;28;20044;-85
2022/09/13 02:39:17;;;;;;;7.85;3.60;;;19.50;99.90;;;-147.18;100.00;67318.16;5048587;28;20045;-85
2022/09/13 02:42:50;;;;;;;6.70;3.35;;;19.50;99.90;;;-147.18;100.00;67318.16;5030202;28;20044;-85
2022/09/13 02:46:22;;;;;;;6.40;3.38;;;19.50;99.90;;;-147.18;100.00;67318.16;5043715;28;20056;-85
2022/09/13 02:49:57;;;;;;;9.60;3.30;;;19.50;99.90;;;-147.18;100.00;67318.16;5042164;28;20044;-85
2022/09/13 02:53:38;;;;;;;7.07;3.33;;;19.50;99.90;;;-147.18;100.00;67318.16;5060538;28;20044;-85
2022/09/13 02:57:13;;;;;;;7.43;3.72;;;19.50;99.90;;;-147.18;100.00;67318.16;5047955;28;20063;-85
2022/09/13 03:00:38;;;;;;;6.32;3.45;;;19.50;99.90;;;-147.18;100.00;67318.16;5039323;28;20485;-85
2022/09/13 03:04:08;;;;;;;7.90;3.60;;;19.50;99.90;;;-147.18;100.00;67318.16;5048847;28;20095;-85
2022/09/13 03:07:35;;;;;;;4.72;3.15;;;19.50;99.90;;;-147.18;100.00;67318.16;5046341;28;20044;-85
2022/09/13 03:11:11;;;;;;;5.53;3.05;;;19.50;99.90;;;-147.18;100.00;67318.16;5047180;28;20500;-85
2022/09/13 03:14:55;;;;;;;7.72;3.20;;;19.50;99.90;;;-147.18;100.00;67318.16;5048437;28;20044;-85
2022/09/13 03:18:40;;;;;;;6.07;3.20;;;19.50;99.90;;;-147.18;100.00;67318.16;5046091;28;20045;-85
2022/09/13 03:22:21;;;;;;;6.38;3.25;;;19.60;99.90;;;-147.18;100.00;67318.16;5045850;28;20045;-85
2022/09/13 03:26:09;;;;;;;6.32;3.60;;;19.60;99.90;;;-147.18;100.00;67318.16;5053052;28;20052;-85
2022/09/13 03:29:45;;;;;;;5.82;3.28;;;19.60;99.90;;;-147.18;100.00;67318.16;5045835;28;20045;-85
2022/09/13 03:33:24;;;;;;;9.02;3.60;;;19.60;99.90;;;-147.18;100.00;67318.16;5047260;28;20053;-86
2022/09/13 03:36:55;;;;;;;10.38;4.00;;;19.60;99.90;;;-147.18;100.00;67318.16;5030876;28;20165;-85
2022/09/13 03:40:35;;;;;;;8.18;3.83;;;19.60;99.90;;;-147.18;100.00;67318.16;5048345;28;20132;-86
2022/09/13 03:44:06;;;;;;;9.55;4.00;;;19.60;99.90;;;-147.18;100.00;67318.16;5073337;28;20048;-85
2022/09/13 03:47:36;;;;;;;7.40;3.90;;;19.60;99.90;;;-147.18;100.00;67318.16;5040233;28;20049;-85
2022/09/13 03:51:02;;;;;;;9.02;4.63;;;19.50;99.90;;;-147.18;100.00;67318.16;5050153;28;20091;-85
2022/09/13 03:54:31;;;;;;;7.93;4.40;;;19.50;99.90;;;-147.18;100.00;67318.16;5045544;28;20052;-85
2022/09/13 03:58:11;;;;;;;8.43;4.47;;;19.50;99.90;;;-147.18;100.00;67318.16;5051198;28;20175;-85
2022/09/13 04:01:37;;;;;;;10.75;4.20;;;19.40;99.90;;;-147.18;100.00;67318.16;5053287;28;20605;-85
2022/09/13 04:05:02;;;;;;;6.82;4.10;;;19.40;99.90;;;-147.18;100.00;67318.16;5040661;28;20045;-85
2022/09/13 04:08:28;;;;;;;9.02;4.13;;;19.40;99.90;;;-147.18;100.00;67318.16;5040966;28;20037;-85
2022/09/13 04:11:54;;;;;;;6.53;4.13;;;19.30;99.90;;;-147.18;100.00;67318.16;5058672;28;20043;-89
2022/09/13 04:15:21;;;;;;;10.98;4.47;;;19.20;99.90;;;-147.18;100.00;67318.16;5037886;28;20045;-88
2022/09/13 04:18:46;;;;;;;7.07;4.15;;;19.20;99.90;;;-147.18;100.00;67318.16;5050950;28;20827;-91
2022/09/13 04:22:12;;;;;;;8.70;4.07;;;19.20;99.90;;;-147.18;100.00;67318.16;5035763;28;20045;-91
2022/09/13 04:25:39;;;;;;;6.95;4.20;;;19.10;99.90;;;-147.18;100.00;67318.16;5035141;28;20090;-91
2022/09/13 04:29:04;;;;;;;8.23;4.57;;;19.20;99.90;;;-147.18;100.00;67318.16;5049830;28;20041;-92
2022/09/13 04:32:32;;;;;;;9.90;3.85;;;19.10;99.90;;;-147.18;100.00;67318.16;5059250;28;20159;-92
2022/09/13 04:35:58;;;;;;;9.13;4.15;;;19.10;99.90;;;-147.18;100.00;67318.16;5033905;28;20072;-92
2022/09/13 04:39:24;;;;;;;10.38;4.25;;;19.20;99.90;;;-147.18;100.00;67318.16;5050809;28;20493;-92
2022/09/13 04:42:50;;;;;;;7.40;4.15;;;19.20;99.90;;;-147.18;100.00;67318.16;5038798;28;20041;-92
2022/09/13 04:46:16;;;;;;;9.02;4.70;;;19.10;99.90;;;-147.18;100.00;67318.16;5054754;28;20144;-92
2022/09/13 04:49:47;;;;;;;7.82;3.92;;;19.10;99.90;;;-147.18;100.00;67318.16;5050366;28;20052;-90
2022/09/13 04:53:13;;;;;;;7.20;4.33;;;19.20;99.90;;;-147.18;100.00;67318.16;5049655;28;20084;-89
2022/09/13 04:56:38;;;;;;;10.02;3.83;;;19.10;99.90;;;-147.18;100.00;67318.16;5038851;28;20287;-87
2022/09/13 05:00:05;;;;;;;8.18;4.07;;;19.10;99.90;;;-147.18;100.00;67318.16;5043946;28;20037;-86
2022/09/13 05:03:31;;;;;;;6.50;4.00;;;19.10;99.90;;;-147.18;100.00;67318.16;5046466;28;20072;-87
2022/09/13 05:07:01;;;;;;;6.88;4.15;;;19.10;99.90;;;-147.18;100.00;67318.16;5039834;28;20137;-89
2022/09/13 05:10:27;;;;;;;7.68;4.38;;;19.10;99.90;;;-147.18;100.00;67318.16;5041384;28;20489;-87
2022/09/13 05:13:54;;;;;;;6.95;4.05;;;19.10;99.90;;;-147.18;100.00;67318.16;5047503;28;20059;-87
2022/09/13 05:17:20;;;;;;;7.68;4.20;;;19.10;99.90;;;-147.18;100.00;67318.16;5047045;28;20045;-86
2022/09/13 05:20:46;;;;;;;9.27;4.38;;;19.10;99.90;;;-147.18;100.00;67318.16;5045243;28;20056;-86
2022/09/13 05:24:13;;;;;;;8.50;4.50;;;19.10;99.90;;;-147.18;100.00;67318.16;5047438;28;20037;-86
2022/09/13 05:27:38;;;;;;;7.55;4.20;;;19.00;99.90;;;-147.18;100.00;67318.16;5042586;28;20072;-86
2022/09/13 05:31:06;;;;;;;8.52;4.05;;;19.00;99.90;;;-147.18;100.00;67318.16;5048565;28;20045;-86
2022/09/13 05:34:34;;;;;;;10.15;4.30;;;19.00;99.90;;;-147.18;100.00;67318.16;5059026;28;20123;-86
2022/09/13 05:37:59;;;;;;;7.38;3.92;;;19.00;99.90;;;-147.18;100.00;67318.16;5037037;28;20112;-85
2022/09/13 05:41:26;;;;;;;7.03;4.10;;;19.10;99.90;;;-147.18;100.00;67318.16;5051230;28;20033;-85
2022/09/13 05:44:52;;;;;;;7.72;4.13;;;19.00;99.90;;;-147.18;100.00;67318.16;5041510;28;20037;-86
2022/09/13 05:48:17;;;;;;;9.13;4.13;;;19.00;99.90;;;-147.18;100.00;67318.16;5041720;28;20045;-86
2022/09/13 05:51:43;;;;;;;8.15;4.05;;;19.10;99.90;;;-147.18;100.00;67318.16;5040593;28;20053;-85
2022/09/13 05:55:11;;;;;;;6.97;4.18;;;19.10;99.90;;;-147.18;100.00;67318.16;5047695;28;20115;-87
2022/09/13 05:58:38;;;;;;;6.80;3.90;;;19.10;99.90;;;-147.18;100.00;67318.16;5048294;28;20043;-86
2022/09/13 06:02:04;;;;;;;8.90;3.85;;;19.10;99.90;;;-147.18;100.00;67318.16;5049222;28;20128;-85
2022/09/13 06:05:30;;;;;;;6.30;3.50;;;19.10;99.90;;;-147.18;100.00;67318.16;5050140;28;20065;-86
2022/09/13 06:08:56;;;;;;;7.43;3.60;;;19.10;99.90;;;-147.18;100.00;67318.16;5049564;28;20049;-86
2022/09/13 06:12:22;;;;;;;5.63;3.55;;;19.10;99.90;;;-147.18;100.00;67318.16;5049302;28;20498;-87
2022/09/13 06:15:49;;;;;;;8.65;3.90;;;19.10;99.90;;;-147.18;100.00;67318.16;5048377;28;20133;-87
2022/09/13 06:19:15;;;;;;;6.53;3.75;;;19.10;99.90;;;-147.18;100.00;67318.16;5046559;28;20128;-85
2022/09/13 06:22:40;;;;;;;6.53;3.50;;;19.20;99.90;;;-147.18;100.00;67318.16;5028497;28;20059;-79
2022/09/13 06:26:08;;;;;;;7.95;3.65;;;19.20;99.90;;;-147.18;100.00;67318.16;5009227;28;20047;-79
2022/09/13 06:29:35;;;;;;;5.82;3.63;;;19.20;99.90;;;-147.18;100.00;67318.16;5021388;28;20137;-79
2022/09/13 06:33:02;;;;;;;6.43;3.20;;;19.20;99.90;;;-147.18;100.00;67318.16;5008183;28;20042;-78
2022/09/13 06:36:27;;;;;;;8.20;3.83;;;19.20;99.90;;;-147.18;100.00;67318.16;4999770;28;20060;-79
2022/09/13 06:39:53;;;;;;;6.60;3.58;;;19.20;99.90;;;-147.18;100.00;67318.16;5011419;28;20038;-79
2022/09/13 06:43:19;;;;;;;7.75;3.80;;;19.30;99.90;;;-147.18;100.00;67318.16;5002513;28;20406;-79
2022/09/13 06:46:45;;;;;;;9.77;3.38;;;19.30;99.90;;;-147.18;100.00;67318.16;4992555;28;20042;-79
2022/09/13 06:50:12;;;;;;;6.70;3.60;;;19.30;99.90;;;-147.18;100.00;67318.16;5013496;28;20495;-79
2022/09/13 06:53:38;;;;;;;12.90;3.67;;;19.40;99.90;;;-147.18;100.00;67318.16;5004817;28;20052;-79
2022/09/13 06:57:05;;;;;;;6.20;3.00;;;19.30;99.90;;;-147.18;100.00;67318.16;4993618;28;20498;-79
2022/09/13 07:00:30;;;;;;;5.60;3.45;;;19.40;99.90;;;-147.18;100.00;67318.16;5019404;28;20041;-79
2022/09/13 07:03:58;;;;;;;8.02;3.50;;;19.40;99.90;;;-147.18;100.00;67318.16;5004309;28;20137;-79
2022/09/13 07:07:27;;;;;;;5.22;2.97;;;19.40;99.90;;;-147.18;100.00;67318.16;5005114;28;20490;-79
2022/09/13 07:10:56;;;;;;;5.20;3.30;;;19.50;99.90;;;-147.18;100.00;67318.16;5010660;28;20132;-79
2022/09/13 07:14:23;;;;;;;5.88;3.60;;;19.50;99.90;;;-147.18;100.00;67318.16;5001162;28;20254;-79
2022/09/13 07:17:49;;;;;;;6.05;3.55;;;19.60;99.90;;;-147.18;100.00;67318.16;4994702;28;20054;-79
2022/09/13 07:21:17;;;;;;;6.22;3.72;;;19.60;99.90;;;-147.18;100.00;67318.16;5009130;28;20046;-79
2022/09/13 07:24:43;;;;;;;10.02;4.32;;;19.60;99.90;;;-147.18;100.00;67318.16;5014456;28;20629;-77
2022/09/13 07:28:09;;;;;;;7.93;3.65;;;19.70;99.90;;;-147.18;100.00;67318.16;4995997;28;20038;-77
2022/09/13 07:31:35;;;;;;;6.78;3.67;;;19.70;99.90;;;-147.18;100.00;67318.16;5008928;28;20061;-76
2022/09/13 07:35:03;;;;;;;12.40;3.25;;;19.70;99.90;;;-147.18;100.00;67318.16;5020658;28;20041;-76
2022/09/13 07:38:28;;;;;;;5.47;3.33;;;19.80;99.90;;;-147.18;100.00;67318.16;5000887;28;20121;-76
2022/09/13 07:41:56;;;;;;;7.18;3.25;;;19.80;99.90;;;-147.18;100.00;67318.16;4988463;28;20413;-77
2022/09/13 07:45:22;;;;;;;6.47;3.38;;;19.90;99.90;;;-147.18;100.00;67318.16;4998879;28;20531;-76
2022/09/13 07:48:48;;;;;;;5.65;3.33;;;19.90;99.90;;;-147.18;100.00;67318.16;4992279;28;20096;-76
2022/09/13 07:52:15;;;;;;;8.52;3.30;;;19.90;99.90;;;-147.18;100.00;67318.16;5000942;28;21243;-76
2022/09/13 07:55:41;;;;;;;6.13;3.50;;;20.00;99.90;;;-147.18;100.00;67318.16;4996896;28;20121;-77
2022/09/13 07:59:11;;;;;;;8.63;3.70;;;20.00;99.90;;;-147.18;100.00;67318.16;5004279;28;20042;-77
2022/09/13 08:02:38;;;;;;;8.73;3.70;;;20.10;99.90;;;-147.18;100.00;67318.16;4993691;28;20057;-78
2022/09/13 08:06:05;;;;;;;5.20;3.15;;;20.10;99.90;;;-147.18;100.00;67318.16;5003212;28;20056;-78
2022/09/13 08:09:31;;;;;;;9.63;3.30;;;20.10;99.90;;;-147.18;100.00;67318.16;4996183;28;20057;-78
2022/09/13 08:12:57;;;;;;;7.30;3.50;;;20.20;99.90;;;-147.18;100.00;67318.16;5011352;28;20038;-79
2022/09/13 08:16:25;;;;;;;14.02;3.85;;;20.20;99.90;;;-147.18;100.00;67318.16;4998216;28;20050;-78
2022/09/13 08:19:52;;;;;;;5.88;3.13;;;20.30;99.90;;;-147.18;100.00;67318.16;4972697;28;20046;-78
2022/09/13 08:23:18;;;;;;;7.20;3.42;;;20.30;99.90;;;-147.18;100.00;67318.16;5006248;28;20132;-78
2022/09/13 08:26:47;;;;;;;8.70;3.88;;;20.30;99.90;;;-147.18;100.00;67318.16;5000763;28;20046;-78
2022/09/13 08:30:13;;;;;;;8.30;3.55;;;20.40;99.90;;;-147.18;100.00;67318.16;4999499;28;20042;-78
2022/09/13 08:33:42;;;;;;;7.68;4.10;;;20.50;99.90;;;-147.18;100.00;67318.16;4999900;28;20792;-79
2022/09/13 08:37:08;;;;;;;8.75;3.90;;;20.50;99.90;;;-147.18;100.00;67318.16;5002339;28;20446;-83
2022/09/13 08:40:39;;;;;;;8.80;3.85;;;20.50;99.90;;;-147.18;100.00;67318.16;4995035;28;20128;-78
2022/09/13 08:44:10;;;;;;;7.05;4.00;;;20.60;99.90;;;-147.18;100.00;67318.16;5016437;28;20038;-78
2022/09/13 08:47:46;;;;;;;8.60;4.78;;;20.60;99.90;;;-147.18;100.00;67318.16;5001374;28;20124;-78
2022/09/13 08:51:23;;;;;;;9.93;5.30;;;20.80;99.90;;;-147.18;100.00;67318.16;4999301;28;20145;-78
2022/09/13 08:54:50;;;;;;;10.80;5.10;;;20.90;99.90;;;-147.18;100.00;67318.16;4992862;28;20045;-78
2022/09/13 08:58:40;;;;;;;9.70;5.03;;;21.00;99.90;;;-147.18;100.00;67318.16;4998695;28;20049;-78
2022/09/13 09:02:23;;;;;;;10.93;5.95;;;21.00;99.90;;;-147.18;100.00;67318.16;5019589;28;20038;-78
2022/09/13 09:05:56;;;;;;;10.35;5.13;;;21.00;99.90;;;-147.18;100.00;67318.16;5004559;28;20050;-79
2022/09/13 09:09:29;;;;;;;12.57;4.80;;;21.10;99.90;;;-147.18;100.00;67318.16;5008347;28;20046;-79
2022/09/13 09:13:03;;;;;;;12.63;5.95;;;21.10;99.90;;;-147.18;100.00;67318.16;4991011;28;20146;-79
2022/09/13 09:16:36;;;;;;;11.80;5.72;;;21.20;99.90;;;-147.18;100.00;67318.16;4992344;28;20529;-79
2022/09/13 09:20:16;;;;;;;8.70;5.05;;;21.20;99.90;;;-147.18;100.00;67318.16;4978740;28;20056;-79
2022/09/13 09:23:49;;;;;;;10.52;4.95;;;21.20;99.90;;;-147.18;100.00;67318.16;4993282;28;20050;-79
2022/09/13 09:27:17;;;;;;;9.43;5.10;;;21.30;99.90;;;-147.18;100.00;67318.16;5007609;28;20034;-79
2022/09/13 09:30:49;;;;;;;11.57;4.70;;;21.40;99.90;;;-147.18;100.00;67318.16;5031562;28;20045;-79
2022/09/13 09:34:45;;;;;;;8.55;4.53;;;21.40;99.90;;;-147.18;100.00;67318.16;4997694;28;20038;-79
2022/09/13 09:38:34;;;;;;;11.15;3.92;;;21.40;99.90;;;-147.18;100.00;67318.16;5007897;28;20121;-79
2022/09/13 09:42:03;;;;;;;8.82;4.85;;;21.50;99.90;;;-147.18;100.00;67318.16;5004685;28;20050;-79
2022/09/13 09:45:31;;;;;;;9.48;5.10;;;21.50;99.90;;;-147.18;100.00;67318.16;5009779;28;20096;-79
2022/09/13 09:50:07;;;;;;;9.27;4.75;;;21.50;99.90;;;-147.18;100.00;67318.16;5016706;28;20418;-79
2022/09/13 09:52:57;;;;;;;9.60;4.53;;;21.60;99.90;;;-147.18;100.00;67318.16;4997788;28;20100;-80
2022/09/13 09:56:29;;;;;;;16.55;5.68;;;21.60;99.90;;;-147.18;100.00;67318.16;5005900;28;20037;-81
2022/09/13 10:00:09;;;;;;;15.38;5.53;;;21.60;99.90;;;-147.18;100.00;67318.16;5001101;28;20052;-81
2022/09/13 10:03:41;;;;;;;12.48;5.50;;;21.60;99.90;;;-147.18;100.00;67318.16;5002415;28;20069;-81
2022/09/13 10:07:25;;;;;;;13.38;6.15;;;21.70;99.90;;;-147.18;100.00;67318.16;5003474;28;20046;-81
2022/09/13 10:10:58;;;;;;;16.05;6.68;;;21.70;99.90;;;-147.18;100.00;67318.16;5003511;28;20050;-81
2022/09/13 10:14:28;;;;;;;18.17;6.70;;;21.80;99.90;;;-147.18;100.00;67318.16;5012560;28;20045;-86
2022/09/13 10:18:07;;;;;;;13.23;6.95;;;21.80;99.90;;;-147.18;100.00;67318.16;5000745;28;20049;-84
2022/09/13 10:21:34;;;;;;;10.48;5.95;;;21.80;99.90;;;-147.18;100.00;67318.16;4995430;28;20120;-79
2022/09/13 10:25:21;;;;;;;15.82;5.47;;;21.80;99.90;;;-147.18;100.00;67318.16;5014719;28;20049;-79
2022/09/13 10:28:55;;;;;;;11.98;6.05;;;21.80;99.90;;;-147.18;100.00;67318.16;4980973;28;20076;-80
2022/09/13 10:32:28;;;;;;;14.63;5.97;;;21.80;99.90;;;-147.18;100.00;67318.16;4998411;28;20046;-79
2022/09/13 10:35:56;;;;;;;12.32;5.65;;;21.90;99.90;;;-147.18;100.00;67318.16;5014542;28;20044;-79
2022/09/13 10:39:27;;;;;;;10.88;5.75;;;21.80;99.90;;;-147.18;100.00;67318.16;4998366;28;20103;-79
2022/09/13 10:42:58;;;;;;;11.65;5.22;;;21.80;99.90;;;-147.18;100.00;67318.16;5000544;28;20084;-80
2022/09/13 10:46:27;;;;;;;16.83;6.15;;;21.90;99.90;;;-147.18;100.00;67318.16;5011574;28;20042;-77
2022/09/13 10:49:54;;;;;;;10.90;5.85;;;21.90;99.90;;;-147.18;100.00;67318.16;5001623;28;20049;-78
2022/09/13 10:53:36;;;;;;;10.07;5.10;;;21.90;99.90;;;-147.18;100.00;67318.16;4997652;28;20041;-78
2022/09/13 10:57:27;;;;;;;11.65;4.97;;;21.90;99.90;;;-147.18;100.00;67318.16;5001321;28;20149;-76
2022/09/13 11:01:13;;;;;;;12.25;5.45;;;22.00;99.90;;;-147.18;100.00;67318.16;5008410;28;20474;-77
2022/09/13 11:05:26;;;;;;;9.13;4.82;;;22.00;99.90;;;-147.18;100.00;67318.16;4994508;28;20042;-77
2022/09/13 11:09:22;;;;;;;7.97;4.47;;;22.00;99.90;;;-147.18;100.00;67318.16;4998150;28;20062;-77
2022/09/13 11:13:06;;;;;;;11.07;4.40;;;22.10;99.90;;;-147.18;100.00;67318.16;5005603;28;20100;-82
2022/09/13 11:16:57;;;;;;;13.68;4.82;;;22.10;99.90;;;-147.18;100.00;67318.16;4985915;28;20082;-83
2022/09/13 11:20:53;;;;;;;11.10;5.03;;;22.20;99.90;;;-147.18;100.00;67318.16;5000143;28;20057;-79
2022/09/13 11:25:07;;;;;;;11.57;5.07;;;22.30;99.90;;;-147.18;100.00;67318.16;5005222;28;20062;-79
2022/09/13 11:29:29;;;;;;;11.35;5.07;;;22.20;99.90;;;-147.18;100.00;67318.16;4935501;28;20109;-83
2022/09/13 11:33:10;;;;;;;13.55;5.03;;;22.30;99.90;;;-147.18;100.00;67318.16;5012001;28;20524;-79
2022/09/13 11:36:58;;;;;;;11.23;5.83;;;22.30;99.90;;;-147.18;100.00;67318.16;4998410;28;20474;-77
2022/09/13 11:40:35;;;;;;;13.77;5.57;;;22.30;99.90;;;-147.18;100.00;67318.16;4998864;28;20421;-78
2022/09/13 11:44:34;;;;;;;8.40;4.68;;;22.40;99.90;;;-147.18;100.00;67318.16;5002628;28;20042;-79
2022/09/13 11:48:16;;;;;;;9.60;4.85;;;22.30;99.90;;;-147.18;100.00;67318.16;5007441;28;20034;-79
2022/09/13 11:51:54;;;;;;;14.93;5.43;;;22.40;99.90;;;-147.18;100.00;67318.16;5027830;28;20399;-80
2022/09/13 11:55:37;;;;;;;11.40;5.78;;;22.40;99.90;;;-147.18;100.00;67318.16;5006785;28;20033;-79
2022/09/13 11:59:15;;;;;;;12.90;5.10;;;22.50;99.90;;;-147.18;100.00;67318.16;5015444;28;20045;-79
2022/09/13 12:02:49;;;;;;;9.93;5.10;;;22.40;99.90;;;-147.18;100.00;67318.16;5016561;28;20044;-79
2022/09/13 12:06:19;;;;;;;14.57;5.47;;;22.50;99.90;;;-147.18;100.00;67318.16;5004625;28;20030;-79
2022/09/13 12:09:52;;;;;;;11.68;4.82;;;22.50;99.90;;;-147.18;100.00;67318.16;5012819;28;20052;-80
2022/09/13 12:13:20;;;;;;;9.57;4.72;;;22.60;99.90;;;-147.18;100.00;67318.16;5025475;28;20042;-79
2022/09/13 12:16:53;;;;;;;10.45;5.50;;;22.60;99.90;;;-147.18;100.00;67318.16;5013648;28;20042;-79
2022/09/13 12:20:28;;;;;;;16.55;4.78;;;22.60;99.90;;;-147.18;100.00;67318.16;5023955;23;20146;-77
2022/09/13 12:23:58;;;;;;;12.93;5.72;;;22.60;99.90;;;-147.18;100.00;67318.16;5025132;28;20056;-77
2022/09/13 12:27:31;;;;;;;8.35;4.53;;;22.80;99.90;;;-147.18;100.00;67318.16;5022074;28;20060;-82
2022/09/13 12:31:07;;;;;;;10.07;4.43;;;22.80;99.90;;;-147.18;100.00;67318.16;5033393;28;20037;-77
2022/09/13 12:34:42;;;;;;;8.85;4.47;;;22.90;99.90;;;-147.18;100.00;67318.16;5025070;28;20122;-77
2022/09/13 12:38:33;;;;;;;9.65;4.45;;;22.90;99.90;;;-147.18;100.00;67318.16;5028334;28;20048;-75
2022/09/13 12:42:26;;;;;;;9.18;4.88;;;22.90;99.90;;;-147.18;100.00;67318.16;5030935;28;20045;-75
2022/09/13 12:46:26;;;;;;;10.95;5.63;;;22.90;99.90;;;-147.18;100.00;67318.16;5026971;28;20044;-75
2022/09/13 12:50:54;;;;;;;14.63;5.55;;;22.90;99.90;;;-147.18;100.00;67318.16;5028055;28;20057;-75
2022/09/13 12:55:09;;;;;;;10.38;4.70;;;22.90;99.60;;;-147.18;100.00;67318.16;4950703;29;20047;-75
2022/09/13 12:58:53;;;;;;;11.50;4.43;;;23.00;99.90;;;-147.18;100.00;67318.16;4996172;28;20391;-77
2022/09/13 13:02:29;;;;;;;12.70;5.78;;;23.00;99.90;;;-147.18;100.00;67318.16;5010812;28;20045;-74
2022/09/13 13:06:07;;;;;;;13.57;5.60;;;23.00;99.90;;;-147.18;100.00;67318.16;5028229;28;20049;-75
2022/09/13 13:09:37;;;;;;;18.52;9.65;;;23.00;99.90;;;-147.18;100.00;67318.16;5027406;28;20041;-74
2022/09/13 13:13:10;;;;;;;14.98;9.30;;;23.00;99.90;;;-147.18;100.00;67318.16;5023882;28;20077;-77
2022/09/13 13:17:22;;;;;;;15.82;9.40;;;23.00;99.90;;;-147.18;100.00;67318.16;5026272;28;20037;-76
2022/09/13 13:21:05;;;;;;;16.48;8.30;;;23.00;99.90;;;-147.18;100.00;67318.16;5026705;28;20045;-76
2022/09/13 13:24:45;;;;;;;12.60;7.72;;;23.00;99.90;;;-147.18;100.00;67318.16;5023725;28;20047;-77
2022/09/13 13:29:04;;;;;;;16.45;8.35;;;23.00;99.90;;;-147.18;100.00;67318.16;5023955;28;20096;-76
2022/09/13 13:32:58;;;;;;;15.15;7.45;;;23.00;99.90;;;-147.18;100.00;67318.16;5023735;28;20037;-76
2022/09/13 13:36:32;;;;;;;10.85;6.28;;;23.00;99.90;;;-147.18;100.00;67318.16;5017873;28;20045;-76
2022/09/13 13:40:11;;;;;;;11.85;6.03;;;22.90;99.90;;;-147.18;100.00;67318.16;5022257;28;20758;-76
2022/09/13 13:43:37;;;;;;;12.73;6.30;;;23.00;99.90;;;-147.18;100.00;67318.16;5029570;28;20410;-77
2022/09/13 13:47:41;;;;;;;16.50;9.68;;;22.90;99.90;;;-147.18;100.00;67318.16;5025290;28;20037;-76
2022/09/13 13:51:20;;;;;;;14.88;9.20;;;22.90;99.90;;;-147.18;100.00;67318.16;5021140;28;20042;-76
2022/09/13 13:55:01;;;;;;;12.90;8.77;;;22.90;99.90;;;-147.18;100.00;67318.16;5017076;28;20548;-76
2022/09/13 13:58:33;;;;;;;16.23;8.90;;;22.90;99.90;;;-147.18;100.00;67318.16;5024780;28;20033;-75
2022/09/13 14:02:01;;;;;;;12.23;8.55;;;22.90;99.90;;;-147.18;100.00;67318.16;5015468;28;20037;-74
2022/09/13 14:05:57;;;;;;;13.75;8.88;;;22.90;99.90;;;-147.18;100.00;67318.16;5016044;28;20037;-74
2022/09/13 14:09:41;;;;;;;8.15;5.38;;;23.00;99.90;;;-147.18;100.00;67318.16;5022596;28;20491;-74
2022/09/13 14:13:25;;;;;;;8.93;5.50;;;23.00;99.90;;;-147.18;100.00;67318.16;5020354;28;20054;-74
2022/09/13 14:17:20;;;;;;;6.40;4.07;;;23.00;99.90;;;-147.18;100.00;67318.16;5021435;28;20030;-75
2022/09/13 14:20:57;;;;;;;10.10;4.63;;;23.00;99.90;;;-147.18;100.00;67318.16;5019079;28;20103;-75
2022/09/13 14:24:23;;;;;;;9.77;4.50;;;23.00;99.90;;;-147.18;100.00;67318.16;5025996;28;20045;-77
2022/09/13 14:27:54;;;;;;;10.82;4.20;;;23.00;99.90;;;-147.18;100.00;67318.16;5026259;28;20041;-77
2022/09/13 14:31:23;;;;;;;7.50;4.53;;;23.10;99.90;;;-147.18;100.00;67318.16;5025692;28;20052;-76